Time;durP1;ratioP1;P1;durP2;ratioP2;P2;SDS_P1;SDS_P2;PMS_P1;PMS_P2;Temp;Humidity;BMP_temperature;BMP_pressure;BME280_temperature;BME280_humidity;BME280_pressure;Samples;Min_cycle;Max_cycle;Signal;HPM_P1;HPM_P2
2021/07/25 00:00:25;;;;;;;570.00;507.30;;;;;;;;;;4955891;29;20031;-83
2021/07/25 00:02:51;;;;;;;566.20;499.67;;;;;;;;;;4935553;29;20059;-84
2021/07/25 00:05:17;;;;;;;569.28;506.38;;;;;;;;;;4933849;29;20464;-84
2021/07/25 00:07:43;;;;;;;566.10;503.02;;;;;;;;;;4931136;29;20387;-82
2021/07/25 00:10:09;;;;;;;567.92;504.80;;;;;;;;;;4938916;29;20063;-83
2021/07/25 00:12:38;;;;;;;568.22;504.90;;;;;;;;;;4938407;29;20027;-84
2021/07/25 00:15:04;;;;;;;571.72;508.88;;;;;;;;;;4938717;29;20074;-84
2021/07/25 00:17:30;;;;;;;571.22;508.00;;;;;;;;;;4938272;29;20556;-83
2021/07/25 00:19:56;;;;;;;572.72;509.75;;;;;;;;;;4938653;29;20023;-82
2021/07/25 00:22:22;;;;;;;576.90;513.58;;;;;;;;;;4936574;29;20491;-84
2021/07/25 00:25:08;;;;;;;574.22;511.30;;;;;;;;;;4938310;29;20038;-84
2021/07/25 00:27:35;;;;;;;571.17;506.92;;;;;;;;;;4938335;29;20685;-85
2021/07/25 00:30:01;;;;;;;565.38;501.23;;;;;;;;;;4955644;29;20023;-84
2021/07/25 00:32:27;;;;;;;565.97;502.90;;;;;;;;;;4934849;29;20077;-83
2021/07/25 00:34:56;;;;;;;568.70;504.38;;;;;;;;;;4953872;29;20063;-83
2021/07/25 00:37:29;;;;;;;571.28;508.45;;;;;;;;;;4955436;29;20526;-84
2021/07/25 00:39:54;;;;;;;571.38;508.25;;;;;;;;;;4937710;29;20761;-83
2021/07/25 00:42:20;;;;;;;577.08;513.78;;;;;;;;;;4938008;29;20035;-83
2021/07/25 00:44:46;;;;;;;574.72;511.63;;;;;;;;;;4937758;29;20088;-84
2021/07/25 00:47:44;;;;;;;574.78;511.67;;;;;;;;;;4937706;29;20031;-83
2021/07/25 00:50:10;;;;;;;570.42;506.88;;;;;;;;;;4955284;29;20035;-83
2021/07/25 00:52:36;;;;;;;577.45;514.05;;;;;;;;;;4952737;29;20597;-83
2021/07/25 00:55:03;;;;;;;576.05;512.88;;;;;;;;;;4953251;29;20054;-82
2021/07/25 00:57:50;;;;;;;578.90;515.72;;;;;;;;;;4937188;29;20038;-81
2021/07/25 01:00:17;;;;;;;568.97;505.35;;;;;;;;;;4936955;29;20027;-81
2021/07/25 01:03:00;;;;;;;562.80;487.45;;;;;;;;;;4937250;29;20039;-82
2021/07/25 01:05:40;;;;;;;568.75;504.58;;;;;;;;;;4937244;29;20031;-82
2021/07/25 01:08:08;;;;;;;;;;;;;;;;;;4953551;29;20472;-81
2021/07/25 01:10:34;;;;;;;563.00;482.77;;;;;;;;;;4933772;29;19914;-81
2021/07/25 01:13:12;;;;;;;563.40;494.08;;;;;;;;;;4936971;29;20024;-80
2021/07/25 01:15:39;;;;;;;566.10;498.67;;;;;;;;;;4936992;29;20027;-81
2021/07/25 01:18:05;;;;;;;564.70;499.45;;;;;;;;;;4926673;29;20104;-81
2021/07/25 01:20:37;;;;;;;572.05;509.08;;;;;;;;;;4929219;29;20167;-81
2021/07/25 01:23:03;;;;;;;570.08;506.30;;;;;;;;;;4917249;29;20175;-81
2021/07/25 01:25:29;;;;;;;566.92;501.80;;;;;;;;;;4922385;29;20039;-80
2021/07/25 01:27:59;;;;;;;566.70;503.10;;;;;;;;;;4918099;29;20119;-80
2021/07/25 01:30:25;;;;;;;;;;;;;;;;;;4936013;29;20604;-80
2021/07/25 01:33:22;;;;;;;563.95;481.02;;;;;;;;;;4936943;29;19907;-81
2021/07/25 01:35:51;;;;;;;563.35;487.38;;;;;;;;;;4947106;29;20031;-81
2021/07/25 01:38:17;;;;;;;567.47;501.38;;;;;;;;;;4936836;29;20036;-80
2021/07/25 01:40:59;;;;;;;568.33;504.23;;;;;;;;;;4937234;29;20077;-80
2021/07/25 01:43:47;;;;;;;566.35;498.90;;;;;;;;;;4936695;29;20047;-80
2021/07/25 01:46:14;;;;;;;565.20;493.95;;;;;;;;;;4937156;29;20379;-81
2021/07/25 01:48:44;;;;;;;567.20;503.58;;;;;;;;;;4937025;29;20019;-81
2021/07/25 01:51:12;;;;;;;570.58;506.42;;;;;;;;;;4948799;29;20016;-80
2021/07/25 01:53:38;;;;;;;568.58;504.90;;;;;;;;;;4945959;29;20031;-80
2021/07/25 01:56:04;;;;;;;565.53;502.08;;;;;;;;;;4948675;29;20380;-80
2021/07/25 01:58:30;;;;;;;570.97;507.70;;;;;;;;;;4936926;29;20042;-80
2021/07/25 02:00:59;;;;;;;567.65;502.45;;;;;;;;;;4936819;29;20023;-80
2021/07/25 02:03:26;;;;;;;570.20;506.85;;;;;;;;;;4953817;29;20456;-79
2021/07/25 02:05:58;;;;;;;561.95;494.77;;;;;;;;;;4936623;29;20027;-80
2021/07/25 02:08:27;;;;;;;566.72;499.77;;;;;;;;;;4936724;29;20044;-80
2021/07/25 02:10:53;;;;;;;568.67;501.88;;;;;;;;;;4954064;29;20479;-79
2021/07/25 02:13:20;;;;;;;566.53;498.77;;;;;;;;;;4936608;29;20198;-78
2021/07/25 02:15:46;;;;;;;570.33;501.23;;;;;;;;;;4936748;29;20033;-79
2021/07/25 02:18:31;;;;;;;567.10;497.50;;;;;;;;;;4933663;29;20038;-79
2021/07/25 02:20:57;;;;;;;563.97;493.65;;;;;;;;;;4927468;29;20117;-79
2021/07/25 02:23:22;;;;;;;564.33;490.10;;;;;;;;;;4936662;29;20076;-79
2021/07/25 02:25:48;;;;;;;565.67;500.25;;;;;;;;;;4936480;29;20117;-79
2021/07/25 02:28:14;;;;;;;566.15;500.60;;;;;;;;;;4940047;29;20019;-79
2021/07/25 02:30:44;;;;;;;564.70;498.40;;;;;;;;;;4957354;29;20027;-79
2021/07/25 02:33:10;;;;;;;570.28;499.33;;;;;;;;;;4921188;29;20488;-83
2021/07/25 02:35:36;;;;;;;567.30;502.25;;;;;;;;;;4947611;29;20031;-84
2021/07/25 02:38:02;;;;;;;564.22;494.92;;;;;;;;;;4957505;29;20090;-83
2021/07/25 02:40:28;;;;;;;563.90;491.77;;;;;;;;;;4940161;29;20031;-82
2021/07/25 02:43:00;;;;;;;565.35;496.73;;;;;;;;;;4957194;29;20055;-82
2021/07/25 02:45:25;;;;;;;565.90;495.38;;;;;;;;;;4920970;29;20432;-84
2021/07/25 02:47:51;;;;;;;569.10;499.85;;;;;;;;;;4935157;29;20020;-81
2021/07/25 02:50:18;;;;;;;567.45;498.60;;;;;;;;;;4957099;29;20457;-81
2021/07/25 02:52:44;;;;;;;562.38;488.75;;;;;;;;;;4938263;29;20122;-82
2021/07/25 02:55:10;;;;;;;563.13;492.00;;;;;;;;;;4939522;29;20046;-82
2021/07/25 02:57:36;;;;;;;564.53;496.67;;;;;;;;;;4939873;29;20035;-83
2021/07/25 03:00:02;;;;;;;569.38;499.40;;;;;;;;;;4940124;29;20388;-83
2021/07/25 03:02:28;;;;;;;564.53;491.70;;;;;;;;;;4936759;29;20035;-83
2021/07/25 03:04:54;;;;;;;566.05;497.63;;;;;;;;;;4928736;29;20036;-82
2021/07/25 03:07:20;;;;;;;562.20;489.27;;;;;;;;;;4933422;29;20081;-84
2021/07/25 03:09:46;;;;;;;562.60;488.48;;;;;;;;;;4935088;29;20031;-81
2021/07/25 03:12:12;;;;;;;566.33;496.83;;;;;;;;;;4934767;29;20378;-84
2021/07/25 03:14:38;;;;;;;567.33;499.63;;;;;;;;;;4934844;29;20101;-83
2021/07/25 03:17:04;;;;;;;566.30;491.55;;;;;;;;;;4924529;29;20045;-85
2021/07/25 03:19:30;;;;;;;565.45;492.83;;;;;;;;;;4932389;29;20043;-85
2021/07/25 03:21:56;;;;;;;564.67;493.80;;;;;;;;;;4936156;29;20121;-84
2021/07/25 03:24:22;;;;;;;565.85;493.58;;;;;;;;;;4950908;29;20031;-85
2021/07/25 03:26:49;;;;;;;565.50;493.50;;;;;;;;;;4951690;29;20046;-84
2021/07/25 03:29:15;;;;;;;563.10;491.27;;;;;;;;;;4952275;29;20027;-83
2021/07/25 03:31:41;;;;;;;572.22;488.67;;;;;;;;;;4934280;28;20069;-84
2021/07/25 03:34:07;;;;;;;567.78;486.10;;;;;;;;;;4951680;29;20039;-83
2021/07/25 03:36:33;;;;;;;562.65;487.25;;;;;;;;;;4946287;29;20027;-84
2021/07/25 03:38:59;;;;;;;566.83;486.83;;;;;;;;;;4934937;29;20071;-84
2021/07/25 03:41:25;;;;;;;562.95;481.73;;;;;;;;;;4948076;29;20062;-84
2021/07/25 03:43:51;;;;;;;563.97;482.48;;;;;;;;;;4934139;29;20028;-84
2021/07/25 03:46:17;;;;;;;563.00;479.63;;;;;;;;;;4934197;29;20023;-83
2021/07/25 03:48:43;;;;;;;565.20;484.80;;;;;;;;;;4932833;29;20031;-82
2021/07/25 03:51:11;;;;;;;567.05;483.83;;;;;;;;;;4931495;29;20462;-84
2021/07/25 03:53:38;;;;;;;564.78;487.42;;;;;;;;;;4930910;29;20027;-83
2021/07/25 03:56:05;;;;;;;564.35;483.38;;;;;;;;;;4923066;29;20102;-84
2021/07/25 03:58:35;;;;;;;564.25;480.77;;;;;;;;;;4929408;29;20042;-84
2021/07/25 04:01:01;;;;;;;565.08;487.40;;;;;;;;;;4948511;29;20024;-84
2021/07/25 04:03:27;;;;;;;563.47;485.05;;;;;;;;;;4933622;29;20090;-83
2021/07/25 04:05:53;;;;;;;565.55;487.88;;;;;;;;;;4928182;29;20464;-82
2021/07/25 04:08:19;;;;;;;566.30;486.83;;;;;;;;;;4932304;29;20019;-83
2021/07/25 04:10:45;;;;;;;566.28;485.65;;;;;;;;;;4933446;29;20166;-84
2021/07/25 04:13:11;;;;;;;568.70;490.10;;;;;;;;;;4934744;29;20118;-83
2021/07/25 04:15:42;;;;;;;568.80;490.55;;;;;;;;;;4933648;29;20050;-83
2021/07/25 04:18:08;;;;;;;564.55;487.30;;;;;;;;;;4934263;29;20031;-83
2021/07/25 04:20:35;;;;;;;568.88;486.15;;;;;;;;;;4950133;29;20027;-82
2021/07/25 04:23:03;;;;;;;563.38;483.30;;;;;;;;;;4931992;29;20038;-83
2021/07/25 04:25:30;;;;;;;569.55;484.63;;;;;;;;;;4933696;29;20031;-84
2021/07/25 04:27:57;;;;;;;564.17;484.98;;;;;;;;;;4934517;29;20042;-83
2021/07/25 04:30:24;;;;;;;564.75;488.65;;;;;;;;;;4948610;29;20031;-84
2021/07/25 04:32:50;;;;;;;564.92;485.48;;;;;;;;;;4950369;29;20035;-84
2021/07/25 04:35:17;;;;;;;565.88;485.25;;;;;;;;;;4949728;29;20027;-83
2021/07/25 04:37:54;;;;;;;566.92;491.40;;;;;;;;;;4930544;29;20475;-82
2021/07/25 04:40:21;;;;;;;571.08;489.67;;;;;;;;;;4928761;29;20420;-82
2021/07/25 04:42:51;;;;;;;573.67;485.73;;;;;;;;;;4932023;29;20346;-82
2021/07/25 04:45:20;;;;;;;572.83;492.83;;;;;;;;;;4948555;28;20030;-82
2021/07/25 04:47:51;;;;;;;563.05;485.25;;;;;;;;;;4950274;29;20106;-83
2021/07/25 04:50:17;;;;;;;565.45;487.95;;;;;;;;;;4932780;29;20552;-81
2021/07/25 04:52:43;;;;;;;566.28;486.33;;;;;;;;;;4947255;29;20027;-84
2021/07/25 04:55:11;;;;;;;567.53;483.73;;;;;;;;;;4931739;29;20035;-83
2021/07/25 04:57:41;;;;;;;569.35;485.17;;;;;;;;;;4948621;29;20093;-83
2021/07/25 05:00:07;;;;;;;;;;;;;;;;;;4932545;29;20031;-83
2021/07/25 05:02:34;;;;;;;561.28;469.23;;;;;;;;;;4948179;29;19936;-83
2021/07/25 05:05:02;;;;;;;565.45;483.50;;;;;;;;;;4932574;29;20019;-85
2021/07/25 05:07:29;;;;;;;565.83;490.58;;;;;;;;;;4949690;29;20020;-84
2021/07/25 05:09:55;;;;;;;565.58;490.50;;;;;;;;;;4931944;29;20066;-83
2021/07/25 05:12:21;;;;;;;567.55;492.73;;;;;;;;;;4928728;29;20027;-83
2021/07/25 05:15:07;;;;;;;562.45;485.38;;;;;;;;;;4932529;29;20035;-83
2021/07/25 05:17:43;;;;;;;565.80;489.83;;;;;;;;;;4933345;29;20035;-84
2021/07/25 05:20:16;;;;;;;567.85;499.70;;;;;;;;;;4930754;29;20095;-83
2021/07/25 05:22:57;;;;;;;565.58;495.65;;;;;;;;;;4946247;29;20459;-84
2021/07/25 05:25:24;;;;;;;565.88;494.70;;;;;;;;;;4933039;29;20252;-83
2021/07/25 05:27:52;;;;;;;563.42;494.08;;;;;;;;;;4932671;29;20034;-83
2021/07/25 05:30:19;;;;;;;564.88;495.95;;;;;;;;;;4949199;29;20035;-83
2021/07/25 05:32:47;;;;;;;564.92;497.67;;;;;;;;;;4949848;29;20039;-82
2021/07/25 05:35:13;;;;;;;568.35;499.70;;;;;;;;;;4933206;29;20031;-84
2021/07/25 05:37:40;;;;;;;569.53;505.48;;;;;;;;;;4931796;29;20381;-82
2021/07/25 05:40:06;;;;;;;565.95;497.88;;;;;;;;;;4924768;29;20057;-81
2021/07/25 05:42:32;;;;;;;566.20;501.25;;;;;;;;;;4931971;29;20050;-81
2021/07/25 05:44:58;;;;;;;569.03;498.92;;;;;;;;;;4930308;29;20023;-82
2021/07/25 05:47:24;;;;;;;565.42;497.65;;;;;;;;;;4932391;29;20110;-80
2021/07/25 05:49:50;;;;;;;566.88;502.52;;;;;;;;;;4930357;29;20036;-80
2021/07/25 05:52:16;;;;;;;565.65;498.52;;;;;;;;;;4922242;29;20039;-79
2021/07/25 05:54:42;;;;;;;569.50;504.70;;;;;;;;;;4932840;28;20027;-80
2021/07/25 05:57:09;;;;;;;572.45;509.42;;;;;;;;;;4922285;29;20448;-80
2021/07/25 05:59:35;;;;;;;567.17;503.88;;;;;;;;;;4949057;29;20027;-82
2021/07/25 06:02:02;;;;;;;569.10;506.20;;;;;;;;;;4952312;29;20032;-84
2021/07/25 06:04:28;;;;;;;573.28;510.23;;;;;;;;;;4951986;29;20070;-83
2021/07/25 06:06:54;;;;;;;574.08;511.10;;;;;;;;;;4935689;29;20059;-82
2021/07/25 06:09:20;;;;;;;565.20;502.40;;;;;;;;;;4934557;29;20142;-80
2021/07/25 06:11:47;;;;;;;574.25;508.10;;;;;;;;;;4939854;29;20487;-83
2021/07/25 06:14:13;;;;;;;570.88;507.95;;;;;;;;;;4954294;29;20038;-81
2021/07/25 06:16:39;;;;;;;577.97;514.83;;;;;;;;;;4935415;29;20023;-85
2021/07/25 06:19:05;;;;;;;576.97;513.90;;;;;;;;;;4927034;29;20027;-84
2021/07/25 06:21:31;;;;;;;573.53;510.40;;;;;;;;;;4933207;29;20027;-83
2021/07/25 06:23:57;;;;;;;574.35;511.42;;;;;;;;;;4934723;29;20337;-83
2021/07/25 06:26:24;;;;;;;578.03;515.00;;;;;;;;;;4935066;29;20020;-84
2021/07/25 06:28:50;;;;;;;572.45;509.20;;;;;;;;;;4932942;29;20115;-83
2021/07/25 06:31:16;;;;;;;579.17;516.10;;;;;;;;;;4935276;29;20114;-84
2021/07/25 06:33:42;;;;;;;571.88;509.20;;;;;;;;;;4935304;29;20122;-83
2021/07/25 06:36:11;;;;;;;579.13;516.10;;;;;;;;;;4935192;29;20028;-83
2021/07/25 06:38:41;;;;;;;574.60;511.45;;;;;;;;;;4933712;29;20047;-84
2021/07/25 06:41:08;;;;;;;570.42;507.83;;;;;;;;;;4935578;29;20038;-83
2021/07/25 06:43:34;;;;;;;578.08;515.30;;;;;;;;;;4933637;29;20387;-85
2021/07/25 06:46:00;;;;;;;578.97;515.78;;;;;;;;;;4934487;29;20019;-84
2021/07/25 06:48:27;;;;;;;579.17;516.45;;;;;;;;;;4933826;29;20036;-84
2021/07/25 06:50:54;;;;;;;589.75;526.72;;;;;;;;;;4930471;29;20035;-83
2021/07/25 06:53:21;;;;;;;579.30;516.55;;;;;;;;;;4933393;29;20031;-83
2021/07/25 06:55:51;;;;;;;580.63;517.88;;;;;;;;;;4934300;29;20423;-84
2021/07/25 06:58:17;;;;;;;584.97;521.90;;;;;;;;;;4952316;29;20024;-83
2021/07/25 07:00:43;;;;;;;586.70;523.85;;;;;;;;;;4933643;29;20061;-85
2021/07/25 07:03:09;;;;;;;591.05;527.65;;;;;;;;;;4951459;29;20046;-86
2021/07/25 07:05:35;;;;;;;590.25;527.20;;;;;;;;;;4935181;29;20027;-87
2021/07/25 07:08:02;;;;;;;595.47;532.38;;;;;;;;;;4934262;29;20027;-87
2021/07/25 07:10:30;;;;;;;593.47;530.15;;;;;;;;;;4934661;29;20027;-88
2021/07/25 07:12:56;;;;;;;592.40;529.03;;;;;;;;;;4931587;29;20256;-87
2021/07/25 07:15:23;;;;;;;591.78;528.88;;;;;;;;;;4932142;29;20032;-88
2021/07/25 07:17:50;;;;;;;590.40;527.63;;;;;;;;;;4935061;29;20058;-89
2021/07/25 07:23:23;;;;;;;584.35;521.53;;;;;;;;;;4957325;29;20046;-90
2021/07/25 07:25:50;;;;;;;584.35;521.58;;;;;;;;;;4934768;29;20111;-86
2021/07/25 07:28:17;;;;;;;590.35;527.63;;;;;;;;;;4952493;29;20480;-88
2021/07/25 07:30:44;;;;;;;598.67;535.63;;;;;;;;;;4937486;29;20027;-86
2021/07/25 07:33:11;;;;;;;600.70;537.50;;;;;;;;;;4937183;29;20039;-84
2021/07/25 07:35:39;;;;;;;593.90;531.08;;;;;;;;;;4937460;29;20043;-85
2021/07/25 07:38:06;;;;;;;596.42;533.63;;;;;;;;;;4949648;29;20175;-88
2021/07/25 07:40:32;;;;;;;597.42;534.65;;;;;;;;;;4929666;29;20058;-86
2021/07/25 07:42:58;;;;;;;599.42;536.63;;;;;;;;;;4936867;29;20093;-85
2021/07/25 07:45:24;;;;;;;608.20;545.08;;;;;;;;;;4952931;29;20023;-86
2021/07/25 07:47:50;;;;;;;610.08;546.97;;;;;;;;;;4937226;29;20495;-82
2021/07/25 07:50:17;;;;;;;612.30;549.33;;;;;;;;;;4937150;29;20051;-84
2021/07/25 07:52:43;;;;;;;611.97;549.00;;;;;;;;;;4936588;29;20437;-83
2021/07/25 07:55:09;;;;;;;618.67;555.67;;;;;;;;;;4937680;29;20043;-86
2021/07/25 07:57:35;;;;;;;632.50;569.13;;;;;;;;;;4953414;29;20149;-84
2021/07/25 08:03:07;;;;;;;640.15;576.65;;;;;;;;;;4955325;29;20046;-87
2021/07/25 08:05:34;;;;;;;638.38;575.08;;;;;;;;;;4938430;29;20027;-86
2021/07/25 08:08:00;;;;;;;639.47;576.38;;;;;;;;;;4944287;29;20023;-86
2021/07/25 08:10:25;;;;;;;648.13;584.88;;;;;;;;;;4938656;29;20023;-86
2021/07/25 08:12:51;;;;;;;647.92;584.65;;;;;;;;;;4955345;29;20050;-88
2021/07/25 08:15:27;;;;;;;646.38;583.17;;;;;;;;;;4922377;29;20039;-85
2021/07/25 08:17:53;;;;;;;653.38;589.92;;;;;;;;;;4935086;28;20023;-87
2021/07/25 08:20:18;;;;;;;659.45;595.85;;;;;;;;;;4932958;29;20019;-82
2021/07/25 08:22:45;;;;;;;657.35;593.78;;;;;;;;;;4931014;29;20031;-83
2021/07/25 08:25:12;;;;;;;654.58;591.17;;;;;;;;;;4928484;29;20119;-83
2021/07/25 08:27:38;;;;;;;656.72;593.22;;;;;;;;;;4923533;29;20031;-85
2021/07/25 08:30:04;;;;;;;663.03;599.35;;;;;;;;;;4932932;29;20450;-88
2021/07/25 08:32:30;;;;;;;668.97;605.00;;;;;;;;;;4932612;29;20031;-85
2021/07/25 08:34:56;;;;;;;662.97;599.25;;;;;;;;;;4933395;29;20038;-83
2021/07/25 08:37:22;;;;;;;660.60;597.13;;;;;;;;;;4932232;29;20487;-83
2021/07/25 08:39:48;;;;;;;660.20;596.83;;;;;;;;;;4929997;29;20576;-87
2021/07/25 08:42:17;;;;;;;659.72;596.08;;;;;;;;;;4928515;29;20039;-87
2021/07/25 08:44:43;;;;;;;657.60;594.15;;;;;;;;;;4934524;29;20087;-83
2021/07/25 08:47:32;;;;;;;665.55;601.90;;;;;;;;;;4948843;29;20082;-88
2021/07/25 08:53:03;;;;;;;652.28;588.85;;;;;;;;;;4949376;29;20034;-85
2021/07/25 08:55:30;;;;;;;649.60;586.22;;;;;;;;;;4931682;29;20051;-85
2021/07/25 08:57:56;;;;;;;655.35;591.85;;;;;;;;;;4922871;29;20471;-86
2021/07/25 09:00:23;;;;;;;650.22;586.85;;;;;;;;;;4932141;29;20058;-89
2021/07/25 09:02:50;;;;;;;656.63;589.58;;;;;;;;;;4933222;29;20031;-79
2021/07/25 09:05:16;;;;;;;662.28;598.53;;;;;;;;;;4936653;29;20500;-85
2021/07/25 09:07:45;;;;;;;668.55;604.72;;;;;;;;;;4931398;29;20031;-83
2021/07/25 09:10:18;;;;;;;672.67;608.67;;;;;;;;;;4931115;29;20031;-83
2021/07/25 09:12:44;;;;;;;668.60;604.97;;;;;;;;;;4923653;29;20023;-89
2021/07/25 09:15:13;;;;;;;679.65;615.60;;;;;;;;;;4933260;29;20062;-84
2021/07/25 09:17:40;;;;;;;691.78;627.53;;;;;;;;;;4933200;29;20104;-87
2021/07/25 09:20:10;;;;;;;701.67;637.10;;;;;;;;;;4927313;29;20097;-86
2021/07/25 09:22:40;;;;;;;702.67;638.25;;;;;;;;;;4929839;29;20035;-88
2021/07/25 09:25:06;;;;;;;703.30;639.05;;;;;;;;;;4949456;29;20122;-86
2021/07/25 09:27:32;;;;;;;714.95;650.50;;;;;;;;;;4935856;29;20868;-91
2021/07/25 09:30:15;;;;;;;723.55;658.85;;;;;;;;;;4937005;29;20032;-90
2021/07/25 09:32:41;;;;;;;738.22;673.03;;;;;;;;;;4943444;28;20109;-91
2021/07/25 09:35:22;;;;;;;755.58;690.10;;;;;;;;;;4944056;29;20081;-93
2021/07/25 09:37:49;;;;;;;764.60;698.85;;;;;;;;;;4957166;28;20058;-88
2021/07/25 09:40:16;;;;;;;785.53;719.30;;;;;;;;;;4944427;29;20035;-85
2021/07/25 09:42:42;;;;;;;781.92;716.08;;;;;;;;;;4961428;28;20020;-90
2021/07/25 09:45:27;;;;;;;805.13;738.55;;;;;;;;;;4943811;29;20431;-83
2021/07/25 09:47:53;;;;;;;804.97;738.38;;;;;;;;;;4944373;29;20034;-87
2021/07/25 09:50:28;;;;;;;808.33;741.53;;;;;;;;;;4960940;28;20023;-85
2021/07/25 09:53:00;;;;;;;793.63;727.10;;;;;;;;;;4936617;29;20026;-89
2021/07/25 09:55:29;;;;;;;792.25;725.75;;;;;;;;;;4942376;29;20055;-88
2021/07/25 09:57:55;;;;;;;796.47;729.80;;;;;;;;;;4938017;29;20023;-90
2021/07/25 10:00:23;;;;;;;801.78;735.28;;;;;;;;;;4944246;29;20110;-84
2021/07/25 10:02:49;;;;;;;826.10;758.97;;;;;;;;;;4959602;29;20035;-87
2021/07/25 10:05:16;;;;;;;838.13;770.83;;;;;;;;;;4943449;29;20031;-90
2021/07/25 10:07:43;;;;;;;850.25;781.90;;;;;;;;;;4943963;29;20024;-89
2021/07/25 10:10:10;;;;;;;865.72;797.65;;;;;;;;;;4943879;29;20031;-86
2021/07/25 10:12:48;;;;;;;889.33;820.42;;;;;;;;;;4943711;29;20061;-84
2021/07/25 10:15:16;;;;;;;889.88;821.20;;;;;;;;;;4957059;28;20130;-87
2021/07/25 10:17:44;;;;;;;909.72;840.15;;;;;;;;;;4953624;29;20065;-89
2021/07/25 10:20:11;;;;;;;924.35;854.30;;;;;;;;;;4951849;28;20483;-86
2021/07/25 10:22:38;;;;;;;909.58;840.15;;;;;;;;;;4941761;29;20097;-86
2021/07/25 10:25:09;;;;;;;924.47;854.47;;;;;;;;;;4942337;29;20134;-87
2021/07/25 10:27:39;;;;;;;922.45;852.20;;;;;;;;;;4942485;29;20492;-84
2021/07/25 10:30:09;;;;;;;911.88;842.47;;;;;;;;;;4940001;29;20050;-86
2021/07/25 10:32:39;;;;;;;871.13;802.72;;;;;;;;;;4959256;28;20066;-83
2021/07/25 10:35:17;;;;;;;878.78;809.60;;;;;;;;;;4939662;29;20491;-79
2021/07/25 10:37:44;;;;;;;888.58;819.35;;;;;;;;;;4939040;28;20034;-84
2021/07/25 10:40:13;;;;;;;888.08;819.13;;;;;;;;;;4942291;29;20051;-89
2021/07/25 10:42:46;;;;;;;912.43;843.13;;;;;;;;;;4935397;29;20038;-87
2021/07/25 10:45:17;;;;;;;921.17;851.80;;;;;;;;;;4955060;29;20066;-85
2021/07/25 10:47:47;;;;;;;933.05;863.50;;;;;;;;;;4939732;29;20091;-76
2021/07/25 10:50:20;;;;;;;918.67;849.80;;;;;;;;;;4932582;29;20072;-86
2021/07/25 10:52:49;;;;;;;906.53;838.03;;;;;;;;;;4928948;29;20026;-85
2021/07/25 10:55:34;;;;;;;895.53;827.22;;;;;;;;;;4936481;29;20055;-86
2021/07/25 10:58:04;;;;;;;876.80;808.80;;;;;;;;;;4949699;29;20716;-85
2021/07/25 11:00:45;;;;;;;850.60;783.10;;;;;;;;;;4932302;29;20063;-86
2021/07/25 11:03:33;;;;;;;842.20;774.55;;;;;;;;;;4932568;29;21778;-86
2021/07/25 11:12:06;;;;;;;794.83;728.08;;;;;;;;;;4951810;29;20052;-83
2021/07/25 11:14:51;;;;;;;789.47;722.80;;;;;;;;;;4935694;29;20043;-84
2021/07/25 11:17:37;;;;;;;770.10;703.92;;;;;;;;;;4936106;29;20031;-82
2021/07/25 11:20:04;;;;;;;759.25;693.20;;;;;;;;;;4956716;29;20035;-81
2021/07/25 11:22:43;;;;;;;756.67;690.53;;;;;;;;;;4930881;29;20031;-84
2021/07/25 11:25:09;;;;;;;747.70;681.58;;;;;;;;;;4937856;29;20564;-84
2021/07/25 11:27:45;;;;;;;745.15;679.03;;;;;;;;;;4949348;29;20122;-83
2021/07/25 11:30:36;;;;;;;735.92;670.05;;;;;;;;;;4933930;29;20051;-83
2021/07/25 11:33:02;;;;;;;726.83;661.13;;;;;;;;;;4935641;29;20031;-82
2021/07/25 11:35:29;;;;;;;729.30;663.38;;;;;;;;;;4935011;29;20636;-82
2021/07/25 11:37:57;;;;;;;720.13;654.58;;;;;;;;;;4948641;29;20031;-83
2021/07/25 11:40:24;;;;;;;715.55;650.03;;;;;;;;;;4934885;29;20638;-83
2021/07/25 11:43:12;;;;;;;712.47;647.00;;;;;;;;;;4950565;29;20035;-83
2021/07/25 11:45:38;;;;;;;716.78;651.03;;;;;;;;;;4950124;29;20042;-84
2021/07/25 11:48:20;;;;;;;722.15;656.38;;;;;;;;;;4932763;29;20413;-84
2021/07/25 11:50:46;;;;;;;719.45;653.83;;;;;;;;;;4949313;29;20878;-85
2021/07/25 11:53:14;;;;;;;718.70;653.13;;;;;;;;;;4929204;29;20023;-81
2021/07/25 11:55:40;;;;;;;724.58;658.80;;;;;;;;;;4949960;29;20055;-83
2021/07/25 11:58:10;;;;;;;715.70;650.28;;;;;;;;;;4937736;29;20036;-83
2021/07/25 12:00:36;;;;;;;;;;;;;;;;;;4936624;29;20467;-85
2021/07/25 12:03:03;;;;;;;708.83;643.35;;;;;;;;;;4939415;29;20009;-84
2021/07/25 12:05:51;;;;;;;708.97;643.67;;;;;;;;;;4932220;29;20042;-84
2021/07/25 12:08:17;;;;;;;716.42;650.75;;;;;;;;;;4930339;29;20027;-84
2021/07/25 12:10:45;;;;;;;724.20;658.45;;;;;;;;;;4933166;29;20030;-85
2021/07/25 12:13:13;;;;;;;743.95;677.97;;;;;;;;;;4931784;29;20764;-81
2021/07/25 12:15:40;;;;;;;772.22;705.85;;;;;;;;;;4945480;29;20031;-81
2021/07/25 12:21:31;;;;;;;771.28;704.90;;;;;;;;;;4952500;29;20026;-83
2021/07/25 12:23:58;;;;;;;754.00;688.25;;;;;;;;;;4933642;29;20043;-85
2021/07/25 12:26:40;;;;;;;755.25;689.30;;;;;;;;;;4954873;29;20062;-80
2021/07/25 12:29:25;;;;;;;747.13;681.35;;;;;;;;;;4936027;29;20035;-85
2021/07/25 12:31:57;;;;;;;737.83;672.00;;;;;;;;;;4939969;29;20090;-87
2021/07/25 12:34:24;;;;;;;740.88;674.85;;;;;;;;;;4949082;29;20038;-78
2021/07/25 12:36:57;;;;;;;758.53;692.10;;;;;;;;;;4945329;29;20035;-84
2021/07/25 12:39:23;;;;;;;774.90;708.38;;;;;;;;;;4928243;29;20051;-80
2021/07/25 12:41:49;;;;;;;807.10;739.80;;;;;;;;;;4927050;29;20035;-78
2021/07/25 12:44:31;;;;;;;840.40;772.53;;;;;;;;;;4934131;29;20122;-84
2021/07/25 12:46:57;;;;;;;842.97;775.35;;;;;;;;;;4905758;29;20031;-79
2021/07/25 12:49:23;;;;;;;858.95;790.70;;;;;;;;;;4917149;29;20039;-84
2021/07/25 12:51:52;;;;;;;844.58;777.10;;;;;;;;;;4934299;29;20027;-82
2021/07/25 12:54:18;;;;;;;836.87;769.47;;;;;;;;;;4917406;29;20043;-78
2021/07/25 12:56:44;;;;;;;820.58;753.58;;;;;;;;;;4922613;29;20720;-82
2021/07/25 12:59:13;;;;;;;837.28;769.67;;;;;;;;;;4932217;29;20027;-83
2021/07/25 13:07:14;;;;;;;896.95;828.08;;;;;;;;;;4936144;29;20038;-82
2021/07/25 13:09:40;;;;;;;916.78;847.40;;;;;;;;;;4926878;29;20122;-80
2021/07/25 13:12:06;;;;;;;933.40;863.65;;;;;;;;;;4918063;29;20046;-85
2021/07/25 13:14:34;;;;;;;938.67;868.90;;;;;;;;;;4930141;28;20388;-83
2021/07/25 13:17:00;;;;;;;935.83;866.40;;;;;;;;;;4925106;29;20027;-85
2021/07/25 13:19:26;;;;;;;943.42;873.92;;;;;;;;;;4929128;29;20035;-84
2021/07/25 13:21:53;;;;;;;946.08;876.15;;;;;;;;;;4924542;29;20114;-82
2021/07/25 13:24:19;;;;;;;949.90;880.10;;;;;;;;;;4933006;29;20028;-82
2021/07/25 13:26:48;;;;;;;932.53;863.05;;;;;;;;;;4932272;29;20028;-85
2021/07/25 13:29:15;;;;;;;911.67;842.42;;;;;;;;;;4938305;29;20027;-83
2021/07/25 13:31:41;;;;;;;894.42;825.53;;;;;;;;;;4917014;29;20031;-82
2021/07/25 13:34:07;;;;;;;884.35;815.65;;;;;;;;;;4926397;29;20112;-83
2021/07/25 13:36:33;;;;;;;870.03;801.55;;;;;;;;;;4916310;29;20152;-84
2021/07/25 13:39:33;;;;;;;859.78;791.63;;;;;;;;;;4919171;29;20046;-83
2021/07/25 13:42:00;;;;;;;837.50;769.53;;;;;;;;;;4935933;29;20034;-86
2021/07/25 13:44:26;;;;;;;815.90;748.70;;;;;;;;;;4945070;29;20039;-80
2021/07/25 13:49:18;;;;;;;789.92;722.80;;;;;;;;;;4951135;29;20049;-84
2021/07/25 13:51:59;;;;;;;769.97;703.47;;;;;;;;;;4933342;29;20078;-83
2021/07/25 13:54:25;;;;;;;744.63;678.67;;;;;;;;;;4931078;29;20027;-87
2021/07/25 13:56:51;;;;;;;740.47;674.45;;;;;;;;;;4932326;29;20082;-87
2021/07/25 13:59:18;;;;;;;739.38;673.10;;;;;;;;;;4945107;29;20139;-86
2021/07/25 14:01:44;;;;;;;733.80;667.58;;;;;;;;;;4938488;29;20055;-87
2021/07/25 14:04:19;;;;;;;719.08;653.25;;;;;;;;;;4943729;29;20033;-87
2021/07/25 14:06:45;;;;;;;717.80;652.00;;;;;;;;;;4947377;29;20027;-87
2021/07/25 14:09:11;;;;;;;710.97;645.22;;;;;;;;;;4952434;29;20039;-83
2021/07/25 14:11:38;;;;;;;707.22;641.50;;;;;;;;;;4943751;29;20023;-84
2021/07/25 14:14:04;;;;;;;702.25;636.45;;;;;;;;;;4929075;29;20027;-85
2021/07/25 14:16:35;;;;;;;697.90;632.28;;;;;;;;;;4950361;28;20050;-84
2021/07/25 14:19:01;;;;;;;693.13;627.65;;;;;;;;;;4955827;29;20034;-83
2021/07/25 14:21:27;;;;;;;696.75;630.35;;;;;;;;;;4934073;29;20532;-80
2021/07/25 14:23:53;;;;;;;687.38;622.13;;;;;;;;;;4954547;29;20522;-83
2021/07/25 14:26:19;;;;;;;687.33;621.88;;;;;;;;;;4930347;29;20032;-83
2021/07/25 14:28:48;;;;;;;698.05;632.38;;;;;;;;;;4945050;29;20027;-81